createdAt,value
2018-12-01T00:02:03.785Z,7.27
2018-12-01T00:04:31.905Z,7.10
2018-12-01T00:07:00.000Z,9.70
2018-12-01T00:09:28.104Z,8.60
2018-12-01T00:11:56.218Z,9.37
2018-12-01T00:14:24.332Z,6.83
2018-12-01T00:16:52.442Z,6.77
2018-12-01T00:19:20.561Z,8.40
2018-12-01T00:21:48.668Z,6.33
2018-12-01T00:24:16.784Z,8.73
2018-12-01T00:26:44.889Z,8.40
2018-12-01T00:29:12.999Z,9.60
2018-12-01T00:31:41.096Z,9.67
2018-12-01T00:34:09.204Z,8.03
2018-12-01T00:36:37.308Z,7.83
2018-12-01T00:39:07.369Z,6.87
2018-12-01T00:41:35.482Z,8.53
2018-12-01T00:44:03.600Z,8.83
2018-12-01T00:46:31.705Z,6.80
2018-12-01T00:48:59.817Z,7.47
2018-12-01T00:51:27.920Z,7.73
2018-12-01T00:53:56.051Z,8.90
2018-12-01T00:56:24.144Z,7.60
2018-12-01T00:58:52.248Z,8.27
2018-12-01T01:01:20.355Z,7.00
2018-12-01T01:03:48.464Z,7.03
2018-12-01T01:06:16.564Z,7.37
2018-12-01T01:08:44.675Z,6.90
2018-12-01T01:11:12.777Z,7.30
2018-12-01T01:13:40.892Z,6.13
2018-12-01T01:16:09.017Z,6.80
2018-12-01T01:18:37.132Z,7.13
2018-12-01T01:21:05.272Z,5.70
2018-12-01T01:23:33.457Z,6.07
2018-12-01T01:26:01.565Z,5.40
2018-12-01T01:28:29.680Z,5.37
2018-12-01T01:30:57.781Z,6.33
2018-12-01T01:33:30.204Z,5.07
2018-12-01T01:35:58.305Z,6.10
2018-12-01T01:38:26.428Z,7.43
2018-12-01T01:40:59.942Z,7.17
2018-12-01T01:43:28.065Z,6.40
2018-12-01T01:45:56.168Z,6.13
2018-12-01T01:48:24.269Z,5.50
2018-12-01T01:50:52.372Z,6.50
2018-12-01T01:53:20.481Z,6.17
2018-12-01T01:55:48.600Z,6.63
2018-12-01T01:58:16.741Z,6.53
2018-12-01T02:00:44.855Z,5.80
2018-12-01T02:03:13.093Z,6.30
2018-12-01T02:05:41.241Z,5.90
2018-12-01T02:08:09.345Z,7.27
2018-12-01T02:10:37.564Z,6.30
2018-12-01T02:13:05.678Z,9.17
2018-12-01T02:15:33.797Z,6.07
2018-12-01T02:18:01.897Z,7.70
2018-12-01T02:20:30.013Z,5.87
2018-12-01T02:22:58.121Z,18.93
2018-12-01T02:25:26.229Z,5.53
2018-12-01T02:27:54.364Z,7.83
2018-12-01T02:30:22.541Z,6.20
2018-12-01T02:32:50.661Z,7.13
2018-12-01T02:35:23.842Z,10.47
2018-12-01T02:37:51.945Z,52.33
2018-12-01T02:40:20.096Z,10.60
2018-12-01T02:42:48.200Z,4.07
2018-12-01T02:45:27.602Z,7.70
2018-12-01T02:47:55.753Z,10.87
2018-12-01T02:50:25.585Z,5.20
2018-12-01T02:52:55.572Z,4.67
2018-12-01T02:55:23.687Z,6.83
2018-12-01T02:57:51.792Z,6.13
2018-12-01T03:00:19.896Z,7.00
2018-12-01T03:02:48.005Z,6.83
2018-12-01T03:05:16.113Z,6.37
2018-12-01T03:07:44.228Z,6.07
2018-12-01T03:10:17.164Z,5.83
2018-12-01T03:12:45.284Z,5.70
2018-12-01T03:15:14.442Z,5.47
2018-12-01T03:17:42.639Z,15.20
2018-12-01T03:20:12.944Z,5.90
2018-12-01T03:22:41.087Z,9.07
2018-12-01T03:25:10.309Z,5.40
2018-12-01T03:27:38.512Z,5.73
2018-12-01T03:30:09.708Z,8.37
2018-12-01T03:32:37.894Z,8.53
2018-12-01T03:35:09.108Z,6.23
2018-12-01T03:37:37.229Z,6.57
2018-12-01T03:40:05.840Z,6.73
2018-12-01T03:42:33.952Z,8.67
2018-12-01T03:45:02.055Z,7.30
2018-12-01T03:47:30.160Z,7.53
2018-12-01T03:49:58.265Z,7.80
2018-12-01T03:52:26.380Z,7.80
2018-12-01T03:54:54.484Z,6.20
2018-12-01T03:57:22.589Z,6.10
2018-12-01T03:59:50.684Z,9.20
2018-12-01T04:02:18.795Z,7.27
2018-12-01T04:04:46.961Z,6.63
2018-12-01T04:07:15.201Z,5.57
2018-12-01T04:09:43.284Z,8.60
2018-12-01T04:12:11.404Z,6.73
2018-12-01T04:14:39.532Z,6.67
2018-12-01T04:17:07.645Z,7.90
2018-12-01T04:19:35.744Z,6.40
2018-12-01T04:22:03.849Z,6.87
2018-12-01T04:24:31.939Z,7.43
2018-12-01T04:27:00.064Z,7.57
2018-12-01T04:29:28.165Z,6.53
2018-12-01T04:31:56.276Z,7.33
2018-12-01T04:34:24.402Z,6.67
2018-12-01T04:36:52.540Z,8.63
2018-12-01T04:39:20.640Z,7.90
2018-12-01T04:41:48.745Z,9.27
2018-12-01T04:44:16.861Z,7.70
2018-12-01T04:46:44.971Z,7.90
2018-12-01T04:49:13.070Z,8.33
2018-12-01T04:51:41.184Z,7.70
2018-12-01T04:54:09.307Z,11.40
2018-12-01T04:56:37.424Z,8.77
2018-12-01T04:59:05.528Z,9.97
2018-12-01T05:01:33.636Z,18.83
2018-12-01T05:04:01.880Z,14.97
2018-12-01T05:06:30.028Z,20.67
2018-12-01T05:08:58.144Z,23.87
2018-12-01T05:11:26.252Z,19.10
2018-12-01T05:13:54.370Z,28.80
2018-12-01T05:16:22.469Z,27.97
2018-12-01T05:18:51.046Z,25.90
2018-12-01T05:21:19.164Z,19.30
2018-12-01T05:23:47.288Z,21.70
2018-12-01T05:26:15.425Z,16.27
2018-12-01T05:28:43.548Z,19.23
2018-12-01T05:31:11.781Z,18.97
2018-12-01T05:33:39.908Z,15.23
2018-12-01T05:36:08.069Z,18.73
2018-12-01T05:38:36.197Z,15.23
2018-12-01T05:41:04.372Z,12.50
2018-12-01T05:43:32.492Z,11.47
2018-12-01T05:46:00.648Z,12.53
2018-12-01T05:48:28.769Z,11.40
2018-12-01T05:50:56.893Z,13.30
2018-12-01T05:53:25.004Z,11.00
2018-12-01T05:55:53.152Z,12.23
2018-12-01T05:58:21.284Z,10.67
2018-12-01T06:00:49.549Z,9.27
2018-12-01T06:03:17.652Z,11.30
2018-12-01T06:05:45.757Z,8.23
2018-12-01T06:08:13.923Z,8.47
2018-12-01T06:10:42.023Z,9.67
2018-12-01T06:13:10.137Z,8.63
2018-12-01T06:15:38.283Z,8.23
2018-12-01T06:18:06.460Z,9.13
2018-12-01T06:20:34.644Z,7.30
2018-12-01T06:23:02.776Z,10.10
2018-12-01T06:25:30.886Z,8.13
2018-12-01T06:27:58.997Z,8.03
2018-12-01T06:30:27.104Z,8.60
2018-12-01T06:32:55.222Z,8.43
2018-12-01T06:35:23.324Z,8.30
2018-12-01T06:37:51.464Z,8.20
2018-12-01T06:40:20.520Z,9.60
2018-12-01T06:42:48.799Z,9.33
2018-12-01T06:45:17.377Z,8.60
2018-12-01T06:47:45.502Z,10.33
2018-12-01T06:50:20.330Z,9.30
2018-12-01T06:52:48.445Z,9.40
2018-12-01T06:55:16.571Z,9.63
2018-12-01T06:57:45.720Z,8.83
2018-12-01T07:00:15.839Z,8.43
2018-12-01T07:02:44.626Z,9.57
2018-12-01T07:05:13.610Z,8.90
2018-12-01T07:07:41.708Z,11.03
2018-12-01T07:10:11.090Z,12.47
2018-12-01T07:12:39.868Z,14.53
2018-12-01T07:15:09.960Z,31.67
2018-12-01T07:17:38.070Z,10.70
2018-12-01T07:20:07.380Z,13.07
2018-12-01T07:22:35.492Z,10.97
2018-12-01T07:25:03.704Z,9.50
2018-12-01T07:27:31.837Z,9.33
2018-12-01T07:29:59.968Z,8.40
2018-12-01T07:32:28.136Z,9.30
2018-12-01T07:34:56.252Z,8.83
2018-12-01T07:37:24.361Z,8.03
2018-12-01T07:39:52.576Z,8.70
2018-12-01T07:42:20.676Z,8.63
2018-12-01T07:44:48.803Z,8.97
2018-12-01T07:47:16.912Z,8.27
2018-12-01T07:49:45.039Z,9.57
2018-12-01T07:52:13.144Z,9.13
2018-12-01T07:54:41.293Z,9.30
2018-12-01T07:57:09.470Z,9.10
2018-12-01T07:59:37.577Z,9.33
2018-12-01T08:02:06.081Z,10.80
2018-12-01T08:04:34.192Z,10.93
2018-12-01T08:07:02.448Z,11.47
2018-12-01T08:09:30.584Z,9.17
2018-12-01T08:11:58.692Z,9.70
2018-12-01T08:14:26.888Z,9.70
2018-12-01T08:16:54.988Z,8.83
2018-12-01T08:19:23.108Z,9.27
2018-12-01T08:21:51.204Z,9.40
2018-12-01T08:24:19.313Z,9.13
2018-12-01T08:26:47.412Z,8.60
2018-12-01T08:29:15.527Z,9.60
2018-12-01T08:31:43.612Z,8.37
2018-12-01T08:34:11.734Z,8.53
2018-12-01T08:36:39.833Z,8.13
2018-12-01T08:39:08.559Z,8.93
2018-12-01T08:41:37.061Z,8.03
2018-12-01T08:44:05.188Z,8.50
2018-12-01T08:46:33.297Z,8.47
2018-12-01T08:49:01.408Z,8.10
2018-12-01T08:51:29.512Z,8.00
2018-12-01T08:53:57.637Z,9.50
2018-12-01T08:56:25.740Z,8.83
2018-12-01T08:58:53.891Z,7.97
2018-12-01T09:01:21.985Z,7.77
2018-12-01T09:03:50.082Z,7.23
2018-12-01T09:06:18.196Z,7.67
2018-12-01T09:08:46.305Z,7.17
2018-12-01T09:11:14.408Z,7.80
2018-12-01T09:13:42.507Z,6.67
2018-12-01T09:16:10.617Z,7.33
2018-12-01T09:18:38.720Z,7.03
2018-12-01T09:21:06.825Z,7.80
2018-12-01T09:23:34.937Z,7.13
2018-12-01T09:26:03.049Z,7.10
2018-12-01T09:28:31.172Z,6.03
2018-12-01T09:30:59.276Z,7.03
2018-12-01T09:33:27.386Z,7.03
2018-12-01T09:35:55.497Z,6.00
2018-12-01T09:38:24.178Z,7.60
2018-12-01T09:40:51.696Z,6.63
2018-12-01T09:43:19.804Z,7.50
2018-12-01T09:45:47.916Z,6.27
2018-12-01T09:48:16.013Z,6.97
2018-12-01T09:50:44.132Z,6.87
2018-12-01T09:53:12.232Z,7.43
2018-12-01T09:55:40.356Z,6.47
2018-12-01T09:58:08.461Z,6.97
2018-12-01T10:00:36.573Z,7.60
2018-12-01T10:03:06.716Z,8.20
2018-12-01T10:05:35.049Z,6.93
2018-12-01T10:08:03.154Z,7.00
2018-12-01T10:10:31.244Z,7.80
2018-12-01T10:12:59.348Z,7.63
2018-12-01T10:15:28.700Z,6.97
2018-12-01T10:17:56.812Z,7.33
2018-12-01T10:20:28.119Z,6.90
2018-12-01T10:22:56.489Z,7.87
2018-12-01T10:25:24.614Z,8.37
2018-12-01T10:27:52.725Z,7.83
2018-12-01T10:30:21.426Z,7.30
2018-12-01T10:32:50.412Z,7.20
2018-12-01T10:35:20.641Z,6.97
2018-12-01T10:37:51.162Z,6.80
2018-12-01T10:40:19.284Z,6.40
2018-12-01T10:42:47.406Z,6.50
2018-12-01T10:45:16.617Z,7.30
2018-12-01T10:47:45.084Z,6.47
2018-12-01T10:50:14.329Z,6.70
2018-12-01T10:52:42.432Z,6.60
2018-12-01T10:55:31.729Z,6.20
2018-12-01T10:58:04.091Z,6.03
2018-12-01T11:00:38.237Z,5.67
2018-12-01T11:03:11.333Z,6.70
2018-12-01T11:05:39.448Z,5.87
2018-12-01T11:08:08.672Z,6.67
2018-12-01T11:10:36.896Z,5.87
2018-12-01T11:13:05.000Z,6.27
2018-12-01T11:15:33.120Z,6.53
2018-12-01T11:18:01.234Z,5.77
2018-12-01T11:20:29.577Z,5.83
2018-12-01T11:22:58.195Z,6.40
2018-12-01T11:25:25.868Z,5.97
2018-12-01T11:27:53.965Z,5.07
2018-12-01T11:30:22.078Z,5.57
2018-12-01T11:32:50.220Z,5.20
2018-12-01T11:35:18.324Z,4.97
2018-12-01T11:37:46.424Z,4.40
2018-12-01T11:40:15.857Z,5.43
2018-12-01T11:42:44.217Z,5.07
2018-12-01T11:45:13.521Z,4.57
2018-12-01T11:47:41.630Z,5.20
2018-12-01T11:50:15.603Z,5.20
2018-12-01T11:52:44.088Z,5.03
2018-12-01T11:55:13.549Z,4.50
2018-12-01T11:57:41.652Z,4.07
2018-12-01T12:00:14.857Z,4.33
2018-12-01T12:02:42.944Z,4.50
2018-12-01T12:05:12.124Z,4.90
2018-12-01T12:07:51.774Z,4.83
2018-12-01T12:10:19.877Z,4.57
2018-12-01T12:12:48.057Z,20.37
2018-12-01T12:15:16.223Z,7.33
2018-12-01T12:17:46.810Z,3.70
2018-12-01T12:20:14.899Z,3.60
2018-12-01T12:22:43.008Z,3.93
2018-12-01T12:25:11.176Z,3.50
2018-12-01T12:27:39.283Z,3.97
2018-12-01T12:30:12.601Z,3.87
2018-12-01T12:32:40.722Z,3.53
2018-12-01T12:35:09.969Z,3.90
2018-12-01T12:37:38.095Z,3.17
2018-12-01T12:41:24.801Z,3.20
2018-12-01T12:43:52.941Z,4.00
2018-12-01T12:46:21.044Z,3.30
2018-12-01T12:48:49.158Z,3.50
2018-12-01T12:51:17.356Z,3.57
2018-12-01T12:53:45.468Z,3.97
2018-12-01T12:56:13.604Z,3.77
2018-12-01T12:58:41.700Z,4.00
2018-12-01T13:01:09.812Z,3.27
2018-12-01T13:03:37.909Z,3.73
2018-12-01T13:06:06.448Z,3.97
2018-12-01T13:08:34.544Z,3.47
2018-12-01T13:11:02.660Z,3.03
2018-12-01T13:13:30.757Z,3.37
2018-12-01T13:15:58.856Z,3.17
2018-12-01T13:18:27.006Z,3.30
2018-12-01T13:20:55.114Z,3.87
2018-12-01T13:23:23.228Z,3.03
2018-12-01T13:25:51.364Z,3.60
2018-12-01T13:28:21.088Z,3.47
2018-12-01T13:30:54.788Z,3.07
2018-12-01T13:33:23.660Z,3.10
2018-12-01T13:35:51.760Z,3.20
2018-12-01T13:38:19.868Z,3.20
2018-12-01T13:40:47.964Z,2.73
2018-12-01T13:43:16.072Z,2.83
2018-12-01T13:45:44.178Z,3.70
2018-12-01T13:48:12.284Z,2.87
2018-12-01T13:50:40.386Z,2.60
2018-12-01T13:53:10.168Z,3.53
2018-12-01T13:55:38.272Z,2.90
2018-12-01T13:58:06.380Z,2.87
2018-12-01T14:00:34.497Z,2.57
2018-12-01T14:03:02.607Z,2.50
2018-12-01T14:05:30.713Z,2.80
2018-12-01T14:07:58.865Z,2.60
2018-12-01T14:10:28.837Z,2.50
2018-12-01T14:13:01.444Z,3.27
2018-12-01T14:15:29.552Z,3.07
2018-12-01T14:17:57.667Z,2.57
2018-12-01T14:20:25.756Z,4.07
2018-12-01T14:22:53.924Z,2.83
2018-12-01T14:25:22.600Z,2.40
2018-12-01T14:27:53.112Z,2.83
2018-12-01T14:30:21.210Z,2.50
2018-12-01T14:32:49.320Z,2.40
2018-12-01T14:35:21.817Z,2.93
2018-12-01T14:37:51.537Z,2.63
2018-12-01T14:40:19.645Z,3.07
2018-12-01T14:42:47.792Z,3.20
2018-12-01T14:45:16.910Z,2.67
2018-12-01T14:47:45.064Z,2.47
2018-12-01T14:50:14.416Z,2.70
2018-12-01T14:52:43.017Z,3.00
2018-12-01T14:55:16.172Z,2.37
2018-12-01T14:57:44.534Z,2.13
2018-12-01T15:00:17.617Z,2.77
2018-12-01T15:02:45.808Z,3.07
2018-12-01T15:05:14.054Z,2.13
2018-12-01T15:07:42.253Z,2.70
2018-12-01T15:10:11.705Z,2.43
2018-12-01T15:12:39.804Z,2.50
2018-12-01T15:15:10.300Z,2.27
2018-12-01T15:17:38.408Z,2.70
2018-12-01T15:20:12.696Z,2.17
2018-12-01T15:22:40.857Z,2.37
2018-12-01T15:25:15.998Z,2.20
2018-12-01T15:27:44.152Z,2.80
2018-12-01T15:30:22.784Z,2.00
2018-12-01T15:32:58.376Z,2.20
2018-12-01T15:35:26.505Z,2.40
2018-12-01T15:37:54.612Z,1.80
2018-12-01T15:40:22.775Z,2.40
2018-12-01T15:42:50.938Z,2.30
2018-12-01T15:45:20.132Z,1.93
2018-12-01T15:47:48.254Z,2.40
2018-12-01T15:50:19.266Z,2.20
2018-12-01T15:52:51.056Z,2.90
2018-12-01T15:55:19.221Z,2.80
2018-12-01T15:57:47.332Z,2.40
2018-12-01T16:00:19.408Z,15.70
2018-12-01T16:02:47.520Z,2.93
2018-12-01T16:05:16.474Z,30.33
2018-12-01T16:07:44.716Z,3.67
2018-12-01T16:10:13.944Z,3.30
2018-12-01T16:12:42.635Z,2.23
2018-12-01T16:15:13.165Z,3.20
2018-12-01T16:17:41.373Z,1.87
2018-12-01T16:20:13.449Z,3.20
2018-12-01T16:22:41.625Z,2.70
2018-12-01T16:25:11.192Z,3.40
2018-12-01T16:27:39.336Z,3.27
2018-12-01T16:30:13.708Z,2.93
2018-12-01T16:32:41.843Z,3.10
2018-12-01T16:35:09.984Z,3.00
2018-12-01T16:37:38.077Z,3.40
2018-12-01T16:40:10.668Z,3.87
2018-12-01T16:42:38.790Z,3.17
2018-12-01T16:45:09.476Z,3.13
2018-12-01T16:47:37.756Z,4.03
2018-12-01T16:50:09.212Z,2.93
2018-12-01T16:52:37.371Z,3.10
2018-12-01T16:55:07.504Z,3.30
2018-12-01T16:57:35.612Z,3.03
2018-12-01T17:00:06.813Z,3.20
2018-12-01T17:02:34.912Z,3.27
2018-12-01T17:05:03.026Z,3.23
2018-12-01T17:07:31.117Z,3.07
2018-12-01T17:09:59.304Z,2.83
2018-12-01T17:12:27.408Z,3.50
2018-12-01T17:14:55.540Z,3.20
2018-12-01T17:17:23.648Z,2.87
2018-12-01T17:19:51.764Z,2.73
2018-12-01T17:22:19.856Z,2.87
2018-12-01T17:24:47.964Z,2.33
2018-12-01T17:27:16.085Z,2.30
2018-12-01T17:29:44.188Z,2.27
2018-12-01T17:32:12.337Z,3.70
2018-12-01T17:34:40.439Z,2.20
2018-12-01T17:37:08.545Z,3.20
2018-12-01T17:39:36.681Z,4.73
2018-12-01T17:42:05.053Z,5.20
2018-12-01T17:44:33.167Z,3.07
2018-12-01T17:47:01.289Z,3.27
2018-12-01T17:49:29.410Z,3.93
2018-12-01T17:51:57.511Z,3.27
2018-12-01T17:54:25.628Z,3.20
2018-12-01T17:56:53.734Z,3.10
2018-12-01T17:59:21.842Z,3.03
2018-12-01T18:01:49.941Z,4.40
2018-12-01T18:04:18.049Z,3.37
2018-12-01T18:06:46.145Z,3.23
2018-12-01T18:09:14.248Z,4.20
2018-12-01T18:11:42.381Z,2.90
2018-12-01T18:14:11.236Z,3.03
2018-12-01T18:16:39.508Z,2.90
2018-12-01T18:19:07.616Z,2.87
2018-12-01T18:21:35.709Z,3.10
2018-12-01T18:24:03.860Z,2.60
2018-12-01T18:26:31.965Z,3.07
2018-12-01T18:29:00.085Z,2.90
2018-12-01T18:31:28.556Z,2.73
2018-12-01T18:34:08.045Z,2.73
2018-12-01T18:36:36.169Z,2.93
2018-12-01T18:39:16.625Z,2.60
2018-12-01T18:41:44.765Z,3.03
2018-12-01T18:44:12.882Z,3.83
2018-12-01T18:46:40.980Z,3.37
2018-12-01T18:49:09.170Z,4.03
2018-12-01T18:51:37.325Z,3.60
2018-12-01T18:54:05.595Z,4.53
2018-12-01T18:56:33.700Z,5.00
2018-12-01T18:59:01.804Z,5.80
2018-12-01T19:01:29.973Z,4.73
2018-12-01T19:03:58.071Z,3.90
2018-12-01T19:06:26.204Z,4.57
2018-12-01T19:08:54.616Z,5.17
2018-12-01T19:11:22.743Z,3.57
2018-12-01T19:13:50.844Z,4.50
2018-12-01T19:16:18.956Z,4.90
2018-12-01T19:18:47.067Z,4.80
2018-12-01T19:21:15.216Z,5.43
2018-12-01T19:23:43.356Z,4.70
2018-12-01T19:26:11.566Z,4.40
2018-12-01T19:28:39.664Z,5.30
2018-12-01T19:31:08.695Z,4.50
2018-12-01T19:33:35.872Z,4.93
2018-12-01T19:36:04.054Z,5.57
2018-12-01T19:38:32.158Z,5.20
2018-12-01T19:41:01.003Z,4.60
2018-12-01T19:43:29.100Z,4.50
2018-12-01T19:45:57.213Z,6.00
2018-12-01T19:48:25.328Z,5.40
2018-12-01T19:50:53.521Z,4.47
2018-12-01T19:53:21.703Z,4.57
2018-12-01T19:55:51.804Z,4.80
2018-12-01T19:58:24.369Z,4.53
2018-12-01T20:01:08.241Z,3.90
2018-12-01T20:03:36.368Z,4.30
2018-12-01T20:06:04.644Z,4.10
2018-12-01T20:08:32.765Z,3.77
2018-12-01T20:11:03.485Z,4.57
2018-12-01T20:13:43.315Z,3.97
2018-12-01T20:16:29.113Z,4.53
2018-12-01T20:18:57.228Z,3.90
2018-12-01T20:21:25.349Z,5.17
2018-12-01T20:23:53.441Z,3.27
2018-12-01T20:26:21.592Z,3.30
2018-12-01T20:28:50.088Z,4.33
2018-12-01T20:31:18.273Z,5.43
2018-12-01T20:33:46.423Z,5.03
2018-12-01T20:36:18.797Z,4.43
2018-12-01T20:39:53.368Z,4.53
2018-12-01T20:42:21.488Z,7.43
2018-12-01T20:44:49.593Z,3.37
2018-12-01T20:47:17.721Z,8.40
2018-12-01T20:49:45.821Z,3.43
2018-12-01T20:52:14.001Z,5.83
2018-12-01T20:54:44.009Z,4.63
2018-12-01T20:57:30.975Z,6.30
2018-12-01T20:59:59.709Z,3.40
2018-12-01T21:02:27.816Z,5.53
2018-12-01T21:04:55.914Z,3.53
2018-12-01T21:07:24.039Z,7.33
2018-12-01T21:09:52.127Z,9.60
2018-12-01T21:12:20.290Z,10.70
2018-12-01T21:14:48.402Z,4.63
2018-12-01T21:17:16.508Z,3.30
2018-12-01T21:19:44.612Z,3.23
2018-12-01T21:22:12.743Z,4.27
2018-12-01T21:24:40.825Z,4.10
2018-12-01T21:27:08.940Z,3.83
2018-12-01T21:29:37.045Z,7.67
2018-12-01T21:32:06.849Z,6.97
2018-12-01T21:34:34.941Z,4.10
2018-12-01T21:37:03.093Z,4.13
2018-12-01T21:39:31.182Z,4.37
2018-12-01T21:41:59.280Z,4.73
2018-12-01T21:44:27.374Z,3.27
2018-12-01T21:46:55.469Z,3.70
2018-12-01T21:49:23.552Z,4.10
2018-12-01T21:51:51.645Z,4.03
2018-12-01T21:54:19.735Z,4.50
2018-12-01T21:56:47.846Z,4.13
2018-12-01T21:59:15.944Z,4.47
2018-12-01T22:01:44.065Z,4.13
2018-12-01T22:04:12.153Z,4.47
2018-12-01T22:06:40.285Z,4.23
2018-12-01T22:09:09.049Z,3.80
2018-12-01T22:11:37.153Z,3.87
2018-12-01T22:14:05.853Z,4.00
2018-12-01T22:16:33.965Z,4.20
2018-12-01T22:19:02.056Z,4.27
2018-12-01T22:21:30.149Z,3.67
2018-12-01T22:23:58.240Z,4.17
2018-12-01T22:26:26.333Z,4.33
2018-12-01T22:28:54.428Z,3.50
2018-12-01T22:31:22.513Z,3.30
2018-12-01T22:33:50.642Z,3.70
2018-12-01T22:36:18.758Z,3.77
2018-12-01T22:38:46.853Z,3.67
2018-12-01T22:41:14.937Z,6.67
2018-12-01T22:43:43.036Z,7.50
2018-12-01T22:46:11.237Z,7.00
2018-12-01T22:48:39.339Z,3.50
2018-12-01T22:51:07.452Z,3.97
2018-12-01T22:53:35.553Z,3.73
2018-12-01T22:56:03.661Z,3.70
2018-12-01T22:58:31.758Z,3.47
2018-12-01T23:00:59.964Z,3.83
2018-12-01T23:03:29.292Z,2.80
2018-12-01T23:05:57.413Z,3.50
2018-12-01T23:08:26.647Z,2.90
2018-12-01T23:10:54.760Z,3.40
2018-12-01T23:13:22.956Z,3.23
2018-12-01T23:15:51.068Z,3.80
2018-12-01T23:18:20.588Z,2.77
2018-12-01T23:20:49.046Z,2.77
2018-12-01T23:23:17.148Z,3.00
2018-12-01T23:25:45.294Z,3.03
2018-12-01T23:28:13.384Z,2.80
2018-12-01T23:30:45.022Z,3.00
2018-12-01T23:33:17.498Z,2.80
2018-12-01T23:35:45.584Z,2.77
2018-12-01T23:38:13.684Z,2.77
2018-12-01T23:40:41.917Z,3.10
2018-12-01T23:43:10.243Z,2.70
2018-12-01T23:45:39.896Z,3.00
2018-12-01T23:48:08.078Z,3.13
2018-12-01T23:50:36.875Z,3.20
2018-12-01T23:53:08.544Z,3.13
2018-12-01T23:55:36.646Z,2.90
2018-12-01T23:58:04.896Z,2.70
